Time;durP1;ratioP1;P1;durP2;ratioP2;P2;SDS_P1;SDS_P2;PMS_P1;PMS_P2;Temp;Humidity;BMP_temperature;BMP_pressure;BME280_temperature;BME280_humidity;BME280_pressure;Samples;Min_cycle;Max_cycle;Signal;HPM_P1;HPM_P2
2022/03/06 00:01:59;;;;;;;30.77;19.45;;;;;;;-1.15;100.00;102599.38;4906233;28;20051;-66
2022/03/06 00:04:25;;;;;;;33.20;19.20;;;;;;;-0.97;100.00;102605.31;4922510;28;20038;-66
2022/03/06 00:06:50;;;;;;;32.50;19.10;;;;;;;-0.87;100.00;102600.31;4907626;28;20047;-66
2022/03/06 00:09:16;;;;;;;27.40;19.17;;;;;;;-0.75;100.00;102602.19;4901021;28;20035;-66
2022/03/06 00:11:41;;;;;;;27.45;18.30;;;;;;;-0.75;100.00;102603.03;4919630;28;20086;-67
2022/03/06 00:14:07;;;;;;;28.00;17.17;;;;;;;-0.52;100.00;102601.59;4910816;28;20066;-66
2022/03/06 00:16:32;;;;;;;31.35;17.45;;;;;;;-0.42;100.00;102604.50;4923430;28;20049;-66
2022/03/06 00:18:57;;;;;;;25.60;16.48;;;;;;;-0.34;100.00;102604.88;4909503;28;20726;-66
2022/03/06 00:21:23;;;;;;;27.70;16.20;;;;;;;-0.36;100.00;102608.56;4923607;28;20621;-67
2022/03/06 00:23:48;;;;;;;23.23;14.98;;;;;;;-0.34;100.00;102604.03;4910088;28;20564;-66
2022/03/06 00:26:14;;;;;;;28.77;15.82;;;;;;;-0.30;100.00;102606.38;4915016;28;20031;-66
2022/03/06 00:28:39;;;;;;;19.52;12.82;;;;;;;-0.28;100.00;102607.13;4905247;28;20051;-66
2022/03/06 00:31:05;;;;;;;20.23;13.55;;;;;;;-0.10;100.00;102614.84;4923357;28;20031;-67
2022/03/06 00:33:31;;;;;;;23.13;13.65;;;;;;;-0.07;100.00;102612.84;4936909;28;20043;-67
2022/03/06 00:35:56;;;;;;;22.13;13.80;;;;;;;0.10;100.00;102622.31;4905941;28;20090;-66
2022/03/06 00:38:22;;;;;;;21.48;12.93;;;;;;;0.13;100.00;102611.50;4925666;28;20039;-66
2022/03/06 00:40:48;;;;;;;19.67;12.13;;;;;;;0.25;100.00;102615.16;4905301;28;20064;-67
2022/03/06 00:43:15;;;;;;;21.75;12.00;;;;;;;0.29;100.00;102615.81;4921821;28;20045;-66
2022/03/06 00:45:41;;;;;;;24.25;12.13;;;;;;;0.33;100.00;102617.28;4899894;28;20050;-66
2022/03/06 00:48:06;;;;;;;20.05;11.52;;;;;;;0.32;100.00;102612.94;4920545;28;20072;-67
2022/03/06 00:50:35;;;;;;;17.58;12.35;;;;;;;0.29;100.00;102621.94;4905338;28;22608;-66
2022/03/06 00:53:00;;;;;;;20.90;13.40;;;;;;;0.30;100.00;102609.53;4922338;28;20124;-66
2022/03/06 00:55:25;;;;;;;20.30;12.02;;;;;;;0.26;100.00;102610.69;4920944;28;20035;-66
2022/03/06 00:57:51;;;;;;;16.27;11.57;;;;;;;0.29;100.00;102605.19;4906019;28;20508;-66
2022/03/06 01:00:16;;;;;;;18.23;11.90;;;;;;;0.42;100.00;102598.09;4919603;28;20145;-67
2022/03/06 01:02:42;;;;;;;19.58;11.70;;;;;;;0.42;100.00;102598.09;4900834;28;20051;-67
2022/03/06 01:05:08;;;;;;;18.55;12.45;;;;;;;0.37;100.00;102608.19;4921013;28;20053;-67
2022/03/06 01:07:33;;;;;;;19.30;11.60;;;;;;;0.28;100.00;102611.44;4905985;28;20046;-66
2022/03/06 01:09:59;;;;;;;18.02;12.02;;;;;;;0.15;100.00;102606.13;4920790;28;20640;-67
2022/03/06 01:12:25;;;;;;;20.70;12.15;;;;;;;0.10;100.00;102611.69;4905052;28;20114;-67
2022/03/06 01:14:50;;;;;;;20.05;12.32;;;;;;;0.16;100.00;102613.94;4919915;28;20042;-66
2022/03/06 01:17:16;;;;;;;18.52;11.60;;;;;;;0.12;100.00;102623.06;4910972;28;20034;-66
2022/03/06 01:19:41;;;;;;;22.38;12.73;;;;;;;0.09;100.00;102607.34;4902618;28;20062;-66
2022/03/06 01:22:07;;;;;;;19.75;12.95;;;;;;;0.12;100.00;102616.91;4921531;28;20045;-66
2022/03/06 01:24:32;;;;;;;21.40;12.98;;;;;;;0.05;100.00;102621.78;4903494;28;20184;-66
2022/03/06 01:26:58;;;;;;;18.60;12.60;;;;;;;0.19;100.00;102621.69;4920798;28;20035;-67
2022/03/06 01:29:23;;;;;;;19.83;13.32;;;;;;;0.22;100.00;102629.47;4903164;28;20146;-67
2022/03/06 01:31:49;;;;;;;20.60;13.63;;;;;;;0.31;100.00;102627.13;4920356;28;20043;-66
2022/03/06 01:34:15;;;;;;;20.38;12.68;;;;;;;0.31;100.00;102627.13;4918265;28;20039;-67
2022/03/06 01:36:40;;;;;;;19.60;12.52;;;;;;;0.35;100.00;102633.94;4907355;28;20067;-67
2022/03/06 01:39:06;;;;;;;21.38;12.93;;;;;;;0.43;100.00;102629.81;4921223;28;20042;-67
2022/03/06 01:41:36;;;;;;;19.77;12.15;;;;;;;0.40;100.00;102631.84;4902749;28;20054;-67
2022/03/06 01:44:02;;;;;;;18.05;12.38;;;;;;;0.34;100.00;102626.94;4934963;28;20038;-66
2022/03/06 01:46:28;;;;;;;26.23;12.48;;;;;;;0.31;100.00;102627.97;4905666;28;20051;-66
2022/03/06 01:48:53;;;;;;;20.27;11.65;;;;;;;0.32;100.00;102629.69;4924616;28;20049;-66
2022/03/06 01:51:19;;;;;;;18.08;11.02;;;;;;;0.40;100.00;102631.84;4904459;28;20507;-67
2022/03/06 01:53:44;;;;;;;20.15;11.30;;;;;;;0.45;100.00;102638.50;4918782;28;20494;-66
2022/03/06 01:56:11;;;;;;;17.80;10.55;;;;;;;0.39;100.00;102636.28;4920834;28;20043;-67
2022/03/06 01:58:37;;;;;;;23.92;10.85;;;;;;;0.41;100.00;102637.03;4901460;28;20062;-66
2022/03/06 02:01:04;;;;;;;16.15;10.25;;;;;;;0.37;100.00;102638.19;4920345;28;20039;-67
2022/03/06 02:03:29;;;;;;;18.85;9.65;;;;;;;0.37;100.00;102634.69;4904966;28;20209;-67
2022/03/06 02:05:55;;;;;;;17.20;10.35;;;;;;;0.39;100.00;102635.44;4922854;28;20436;-67
2022/03/06 02:08:20;;;;;;;14.73;9.88;;;;;;;0.46;100.00;102620.81;4914288;28;20061;-67
2022/03/06 02:10:48;;;;;;;19.00;10.50;;;;;;;0.68;100.00;102630.81;4925663;28;20047;-67
2022/03/06 02:13:13;;;;;;;19.30;9.35;;;;;;;0.72;100.00;102621.69;4906530;28;25319;-66
2022/03/06 02:15:39;;;;;;;17.00;9.32;;;;;;;0.73;100.00;102633.16;4921747;28;20039;-67
2022/03/06 02:18:04;;;;;;;21.08;10.13;;;;;;;0.59;100.00;102621.66;4937603;28;20169;-66
2022/03/06 02:20:30;;;;;;;15.23;9.35;;;;;;;0.64;100.00;102635.50;4914362;28;20205;-66
2022/03/06 02:22:57;;;;;;;18.63;10.40;;;;;;;0.69;100.00;102629.84;4921384;28;20050;-66
2022/03/06 02:25:24;;;;;;;17.63;9.77;;;;;;;0.75;100.00;102629.44;4904834;28;20090;-66
2022/03/06 02:27:52;;;;;;;19.30;10.60;;;;;;;0.69;100.00;102627.22;4920297;28;20082;-66
2022/03/06 02:30:21;;;;;;;16.60;10.60;;;;;;;0.66;100.00;102633.56;4905937;28;20050;-66
2022/03/06 02:32:48;;;;;;;17.33;9.98;;;;;;;0.66;100.00;102633.56;4921829;28;20038;-66
2022/03/06 02:35:14;;;;;;;17.88;10.05;;;;;;;0.64;100.00;102646.09;4906718;28;20487;-66
2022/03/06 02:37:39;;;;;;;18.23;9.80;;;;;;;0.52;100.00;102641.59;4909765;28;20051;-66
2022/03/06 02:40:07;;;;;;;18.48;11.18;;;;;;;0.44;100.00;102638.63;4924398;28;20517;-66
2022/03/06 02:42:35;;;;;;;20.55;10.40;;;;;;;0.61;100.00;102630.38;4908228;28;20451;-66
2022/03/06 02:45:06;;;;;;;17.20;9.75;;;;;;;0.50;100.00;102627.63;4924233;28;20160;-66
2022/03/06 02:47:32;;;;;;;24.73;10.02;;;;;;;0.40;100.00;102631.84;4908847;28;20061;-66
2022/03/06 02:49:57;;;;;;;17.83;10.30;;;;;;;0.32;100.00;102634.16;4919294;28;20050;-66
2022/03/06 02:52:22;;;;;;;18.38;10.43;;;;;;;0.26;100.00;102638.06;4910804;28;20059;-66
2022/03/06 02:54:48;;;;;;;20.02;10.35;;;;;;;0.17;100.00;102630.69;4924157;28;21072;-66
2022/03/06 02:57:14;;;;;;;16.88;9.40;;;;;;;0.14;100.00;102626.47;4913864;28;20570;-67
2022/03/06 02:59:40;;;;;;;20.73;9.55;;;;;;;0.11;100.00;102631.13;4923823;28;20491;-66
2022/03/06 03:02:06;;;;;;;17.35;9.13;;;;;;;0.00;100.00;102621.22;4926120;28;20089;-66
2022/03/06 03:04:33;;;;;;;11.45;7.88;;;;;;;-0.02;100.00;102623.13;4890222;28;20074;-66
2022/03/06 03:06:58;;;;;;;15.13;8.63;;;;;;;-0.09;100.00;102635.06;4922670;28;20755;-66
2022/03/06 03:09:25;;;;;;;15.05;8.07;;;;;;;-0.15;100.00;102623.06;4906900;28;20102;-66
2022/03/06 03:11:50;;;;;;;16.40;8.10;;;;;;;-0.21;100.00;102625.25;4921741;28;20038;-66
2022/03/06 03:14:16;;;;;;;12.80;7.50;;;;;;;-0.25;100.00;102621.94;4922017;28;20054;-66
2022/03/06 03:16:42;;;;;;;12.75;7.22;;;;;;;-0.23;100.00;102622.72;4927496;28;20039;-66
2022/03/06 03:19:08;;;;;;;17.67;8.07;;;;;;;-0.19;100.00;102620.72;4937035;28;20027;-67
2022/03/06 03:21:33;;;;;;;12.88;7.32;;;;;;;-0.12;100.00;102625.50;4908501;28;20058;-66
2022/03/06 03:23:59;;;;;;;16.50;7.47;;;;;;;-0.19;100.00;102618.91;4923121;28;20105;-66
2022/03/06 03:26:24;;;;;;;16.13;6.93;;;;;;;-0.23;100.00;102621.88;4904766;28;20145;-66
2022/03/06 03:28:50;;;;;;;14.85;7.13;;;;;;;-0.31;100.00;102614.41;4937289;28;20049;-66
2022/03/06 03:31:16;;;;;;;17.00;7.10;;;;;;;-0.32;100.00;102629.44;4906699;28;20059;-67
2022/03/06 03:33:41;;;;;;;12.35;6.85;;;;;;;-0.43;100.00;102628.44;4938727;28;20047;-67
2022/03/06 03:36:07;;;;;;;13.48;6.80;;;;;;;-0.46;100.00;102626.81;4908869;28;20203;-66
2022/03/06 03:38:32;;;;;;;13.48;7.43;;;;;;;-0.49;100.00;102632.34;4924391;28;20443;-67
2022/03/06 03:40:58;;;;;;;16.20;7.65;;;;;;;-0.52;100.00;102627.22;4938192;28;20031;-67
2022/03/06 03:43:24;;;;;;;13.13;7.15;;;;;;;-0.57;100.00;102634.59;4921407;28;20512;-66
2022/03/06 03:45:49;;;;;;;13.73;7.97;;;;;;;-0.57;100.00;102634.59;4922838;28;20074;-67
2022/03/06 03:48:15;;;;;;;17.08;6.97;;;;;;;-0.55;100.00;102624.78;4907329;28;20085;-66
2022/03/06 03:50:43;;;;;;;11.93;6.13;;;;;;;-0.63;100.00;102632.31;4923475;28;20031;-66
2022/03/06 03:53:08;;;;;;;14.45;7.68;;;;;;;-0.69;100.00;102632.72;4909966;28;20066;-66
2022/03/06 03:55:34;;;;;;;15.05;7.00;;;;;;;-0.62;100.00;102641.97;4922838;28;20082;-66
2022/03/06 03:57:59;;;;;;;10.20;6.47;;;;;;;-0.54;100.00;102642.34;4905740;28;20051;-66
2022/03/06 04:00:25;;;;;;;16.05;6.82;;;;;;;-0.52;100.00;102641.31;4921847;28;20039;-66
2022/03/06 04:02:50;;;;;;;12.23;6.07;;;;;;;-0.47;100.00;102640.16;4924396;28;20185;-66
2022/03/06 04:05:15;;;;;;;11.80;6.35;;;;;;;-0.41;100.00;102643.28;4907036;28;20101;-66
2022/03/06 04:07:41;;;;;;;10.68;6.03;;;;;;;-0.40;100.00;102644.13;4922929;28;20078;-66
2022/03/06 04:10:06;;;;;;;10.60;6.00;;;;;;;-0.44;100.00;102646.13;4907848;28;20058;-66
2022/03/06 04:12:32;;;;;;;10.98;6.03;;;;;;;-0.43;100.00;102652.25;4921854;28;20035;-66
2022/03/06 04:14:57;;;;;;;12.35;5.55;;;;;;;-0.52;100.00;102654.53;4906914;28;20615;-66
2022/03/06 04:17:23;;;;;;;13.35;6.57;;;;;;;-0.51;100.00;102650.94;4922568;28;20438;-66
2022/03/06 04:19:48;;;;;;;14.65;5.93;;;;;;;-0.57;100.00;102658.41;4907077;28;20487;-67
2022/03/06 04:22:14;;;;;;;10.95;5.80;;;;;;;-0.53;100.00;102658.16;4922534;28;20053;-66
2022/03/06 04:24:39;;;;;;;8.88;5.28;;;;;;;-0.52;100.00;102661.66;4923096;28;20043;-66
2022/03/06 04:27:05;;;;;;;9.55;5.80;;;;;;;-0.61;100.00;102657.75;4907196;28;20044;-67
2022/03/06 04:29:30;;;;;;;13.07;5.43;;;;;;;-0.69;100.00;102651.25;4922535;28;20047;-66
2022/03/06 04:31:56;;;;;;;12.48;5.35;;;;;;;-0.65;100.00;102658.06;4907710;28;20054;-66
2022/03/06 04:34:21;;;;;;;11.40;5.78;;;;;;;-0.73;100.00;102656.72;4923859;28;20470;-66
2022/03/06 04:36:47;;;;;;;12.93;6.32;;;;;;;-0.74;100.00;102665.63;4921041;28;20070;-66
2022/03/06 04:39:12;;;;;;;12.60;5.22;;;;;;;-0.80;100.00;102660.69;4935832;28;20035;-66
2022/03/06 04:41:38;;;;;;;13.45;5.45;;;;;;;-0.81;100.00;102669.59;4921154;28;20035;-67
2022/03/06 04:44:03;;;;;;;15.93;5.97;;;;;;;-0.79;100.00;102672.13;4909225;28;20062;-66
2022/03/06 04:46:29;;;;;;;10.02;5.40;;;;;;;-0.84;100.00;102674.19;4921377;28;20123;-66
2022/03/06 04:48:54;;;;;;;12.75;4.82;;;;;;;-0.90;100.00;102675.44;4921845;28;20055;-67
2022/03/06 04:51:20;;;;;;;11.20;5.10;;;;;;;-1.07;100.00;102675.59;4921758;28;20039;-67
2022/03/06 04:53:46;;;;;;;12.38;5.05;;;;;;;-1.24;100.00;102677.44;4904334;28;20927;-66
2022/03/06 04:56:11;;;;;;;9.68;5.25;;;;;;;-1.33;100.00;102678.00;4921059;28;20039;-67
2022/03/06 04:58:37;;;;;;;11.65;5.68;;;;;;;-1.40;100.00;102681.97;4922857;28;20104;-67
2022/03/06 05:01:03;;;;;;;11.18;5.05;;;;;;;-1.47;100.00;102680.63;4921213;28;20039;-67
2022/03/06 05:03:29;;;;;;;11.77;5.55;;;;;;;-1.45;100.00;102695.41;4924996;28;20460;-66
2022/03/06 05:05:54;;;;;;;10.30;4.88;;;;;;;-1.44;100.00;102688.34;4906467;28;20971;-67
2022/03/06 05:08:19;;;;;;;8.88;5.22;;;;;;;-1.48;100.00;102684.19;4922319;28;20042;-66
2022/03/06 05:10:45;;;;;;;14.43;5.85;;;;;;;-1.50;100.00;102683.44;4905061;28;21685;-67
2022/03/06 05:13:10;;;;;;;11.70;4.78;;;;;;;-1.62;100.00;102682.34;4921216;28;20042;-67
2022/03/06 05:15:36;;;;;;;11.15;5.50;;;;;;;-1.69;100.00;102680.97;4903753;28;20062;-67
2022/03/06 05:18:02;;;;;;;12.23;5.13;;;;;;;-1.79;100.00;102685.97;4935977;28;20031;-67
2022/03/06 05:20:27;;;;;;;13.15;5.78;;;;;;;-1.72;100.00;102697.88;4898165;28;20038;-67
2022/03/06 05:22:53;;;;;;;15.15;5.20;;;;;;;-1.79;100.00;102700.94;4919324;28;20178;-67
2022/03/06 05:25:18;;;;;;;9.50;5.55;;;;;;;-1.82;100.00;102695.84;4920589;28;20070;-67
2022/03/06 05:27:44;;;;;;;12.13;5.30;;;;;;;-1.87;100.00;102693.47;4906561;28;20662;-66
2022/03/06 05:30:11;;;;;;;15.25;6.00;;;;;;;-1.99;100.00;102695.00;4920338;28;20050;-67
2022/03/06 05:32:37;;;;;;;9.55;4.90;;;;;;;-2.09;100.00;102677.97;4904566;28;20089;-67
2022/03/06 05:35:04;;;;;;;11.07;5.38;;;;;;;-2.02;100.00;102696.97;4919802;28;20046;-66
2022/03/06 05:37:29;;;;;;;15.43;5.80;;;;;;;-1.94;100.00;102692.94;4879707;28;20069;-67
2022/03/06 05:39:55;;;;;;;15.02;6.22;;;;;;;-1.99;100.00;102694.16;4920830;28;20039;-66
2022/03/06 05:42:21;;;;;;;11.80;6.07;;;;;;;-2.12;100.00;102703.69;4921465;28;20085;-67
2022/03/06 05:44:47;;;;;;;12.80;6.50;;;;;;;-2.22;100.00;102709.47;4920739;28;20040;-67
2022/03/06 05:47:12;;;;;;;8.68;5.22;;;;;;;-2.35;100.00;102708.47;4920881;28;20114;-66
2022/03/06 05:49:38;;;;;;;12.15;5.43;;;;;;;-2.37;100.00;102705.03;4919210;28;20511;-67
2022/03/06 05:52:03;;;;;;;12.73;5.85;;;;;;;-2.21;100.00;102718.22;4920047;28;20384;-66
2022/03/06 05:54:29;;;;;;;8.80;4.95;;;;;;;-2.21;100.00;102711.19;4910126;28;20095;-66
2022/03/06 05:56:55;;;;;;;12.38;6.20;;;;;;;-2.16;100.00;102724.13;4919826;28;20093;-67
2022/03/06 05:59:20;;;;;;;10.48;5.90;;;;;;;-2.20;100.00;102726.09;4903495;28;20059;-67
2022/03/06 06:01:46;;;;;;;13.68;6.38;;;;;;;-2.26;100.00;102734.34;4918130;28;20050;-67
2022/03/06 06:04:14;;;;;;;10.25;5.55;;;;;;;-2.28;100.00;102738.88;4899849;28;20126;-66
2022/03/06 06:06:40;;;;;;;11.63;5.70;;;;;;;-2.21;100.00;102748.16;4906053;28;20042;-67
2022/03/06 06:09:05;;;;;;;10.80;6.10;;;;;;;-2.17;100.00;102746.19;4921141;28;20105;-66
2022/03/06 06:11:31;;;;;;;10.05;5.45;;;;;;;-2.26;100.00;102739.63;4918595;28;20055;-66
2022/03/06 06:13:56;;;;;;;12.45;5.70;;;;;;;-2.20;100.00;102749.84;4908464;28;20178;-67
2022/03/06 06:16:21;;;;;;;11.00;5.00;;;;;;;-2.11;100.00;102758.19;4908822;28;20082;-66
2022/03/06 06:18:47;;;;;;;12.05;6.10;;;;;;;-2.15;100.00;102760.16;4921184;28;20389;-66
2022/03/06 06:21:13;;;;;;;10.57;5.90;;;;;;;-2.18;100.00;102753.28;4921298;28;20130;-66
2022/03/06 06:23:39;;;;;;;15.15;6.57;;;;;;;-2.24;100.00;102769.44;4920594;28;20137;-66
2022/03/06 06:26:05;;;;;;;12.73;5.72;;;;;;;-2.28;100.00;102773.19;4935183;28;20077;-66
2022/03/06 06:28:31;;;;;;;10.90;5.85;;;;;;;-2.34;100.00;102773.50;4902057;28;20055;-66
2022/03/06 06:30:56;;;;;;;11.60;6.18;;;;;;;-2.35;100.00;102771.81;4922139;28;20101;-66
2022/03/06 06:33:22;;;;;;;21.30;7.32;;;;;;;-2.19;100.00;102771.81;4904392;28;20150;-66
2022/03/06 06:35:47;;;;;;;11.57;6.85;;;;;;;-1.92;100.00;102767.69;4921628;28;20665;-66
2022/03/06 06:38:13;;;;;;;20.17;6.53;;;;;;;-1.70;100.00;102774.41;4906720;28;20054;-66
2022/03/06 06:40:39;;;;;;;17.42;6.32;;;;;;;-1.56;100.00;102784.22;4920258;28;20046;-66
2022/03/06 06:43:04;;;;;;;11.98;6.82;;;;;;;-1.52;100.00;102788.38;4909366;28;20082;-66
2022/03/06 06:45:30;;;;;;;16.95;6.40;;;;;;;-1.23;100.00;102784.94;4918521;28;20046;-66
2022/03/06 06:47:56;;;;;;;14.70;6.10;;;;;;;-0.67;100.00;102792.25;4919406;28;20039;-66
2022/03/06 06:50:22;;;;;;;13.40;6.88;;;;;;;-0.28;100.00;102792.50;4920166;28;20062;-66
2022/03/06 06:52:47;;;;;;;13.00;5.93;;;;;;;0.23;100.00;102798.13;4920761;28;20617;-66
2022/03/06 06:55:13;;;;;;;11.50;6.05;;;;;;;1.00;100.00;102795.78;4905777;28;20510;-66
2022/03/06 06:57:38;;;;;;;10.60;5.57;;;;;;;1.77;100.00;102790.53;4919166;28;20403;-66
2022/03/06 07:00:05;;;;;;;13.93;6.18;;;;;;;2.42;100.00;102798.25;4902134;28;20050;-66
2022/03/06 07:02:31;;;;;;;10.50;4.68;;;;;;;2.80;100.00;102798.09;4918984;28;20042;-66
2022/03/06 07:04:56;;;;;;;11.27;4.35;;;;;;;3.16;100.00;102791.00;4917118;28;20113;-66
2022/03/06 07:07:23;;;;;;;8.82;4.28;;;;;;;3.34;100.00;102796.75;4907935;28;20079;-66
2022/03/06 07:09:49;;;;;;;9.90;4.47;;;;;;;3.10;100.00;102794.97;4921782;28;20050;-66
2022/03/06 07:12:15;;;;;;;6.47;3.72;;;;;;;3.10;100.00;102802.13;4910303;28;20412;-67
2022/03/06 07:14:40;;;;;;;7.50;4.25;;;;;;;3.00;100.00;102809.94;4934611;28;20073;-67
2022/03/06 07:17:06;;;;;;;10.35;4.32;;;;;;;2.81;100.00;102804.31;4904707;28;20097;-67
2022/03/06 07:19:31;;;;;;;8.65;3.95;;;;;;;2.70;100.00;102804.22;4920575;28;20117;-66
2022/03/06 07:21:57;;;;;;;7.32;3.80;;;;;;;2.62;100.00;102805.63;4902848;28;20030;-67
2022/03/06 07:24:22;;;;;;;8.07;3.65;;;;;;;2.54;100.00;102810.69;4922534;28;20085;-67
2022/03/06 07:26:47;;;;;;;10.38;3.30;;;;;;;2.50;100.00;102811.88;4928655;28;20034;-67
2022/03/06 07:29:13;;;;;;;7.38;3.25;;;;;;;2.51;100.00;102818.88;4905714;28;20110;-66
2022/03/06 07:31:39;;;;;;;9.68;3.55;;;;;;;2.55;100.00;102816.84;4922713;28;20050;-66
2022/03/06 07:34:04;;;;;;;7.75;3.40;;;;;;;2.53;100.00;102809.00;4906516;28;20047;-67
2022/03/06 07:36:30;;;;;;;7.07;2.72;;;;;;;2.62;100.00;102810.13;4922486;28;20070;-67
2022/03/06 07:38:55;;;;;;;5.85;2.60;;;;;;;2.99;100.00;102813.56;4911508;28;20047;-67
2022/03/06 07:41:20;;;;;;;6.03;2.80;;;;;;;3.56;98.55;102811.91;4931035;28;20038;-67
2022/03/06 07:43:46;;;;;;;6.07;2.80;;;;;;;4.49;92.72;102822.31;4921086;28;20109;-66
2022/03/06 07:46:11;;;;;;;6.55;3.13;;;;;;;5.31;71.93;102824.44;4912564;28;20151;-66
2022/03/06 07:48:37;;;;;;;6.05;3.17;;;;;;;5.93;67.88;102823.56;4939158;28;20031;-66
2022/03/06 07:51:03;;;;;;;9.45;3.60;;;;;;;6.10;63.26;102828.28;4908159;28;20086;-67
2022/03/06 07:53:29;;;;;;;7.15;3.08;;;;;;;6.42;62.61;102820.09;4924290;28;20042;-67
2022/03/06 07:55:54;;;;;;;5.78;2.83;;;;;;;6.13;59.92;102829.84;4906718;28;20058;-67
2022/03/06 07:58:20;;;;;;;9.13;3.25;;;;;;;5.78;60.85;102833.72;4923739;28;20079;-67
2022/03/06 08:00:45;;;;;;;8.52;3.00;;;;;;;6.10;60.20;102830.13;4908915;28;20059;-67
2022/03/06 08:03:11;;;;;;;5.25;2.58;;;;;;;5.97;59.30;102827.69;4942413;28;20051;-67
2022/03/06 08:05:37;;;;;;;5.97;2.53;;;;;;;6.61;57.09;102829.16;4944894;28;20026;-67
2022/03/06 08:08:03;;;;;;;8.98;2.83;;;;;;;6.71;57.36;102821.97;4924743;28;20051;-67
2022/03/06 08:10:29;;;;;;;8.95;2.63;;;;;;;7.13;55.17;102832.44;4921145;28;20039;-67
2022/03/06 08:12:54;;;;;;;5.50;2.85;;;;;;;7.02;54.65;102829.88;4905352;28;20055;-67
2022/03/06 08:15:19;;;;;;;6.55;2.50;;;;;;;6.91;54.22;102829.06;4924907;28;20031;-67
2022/03/06 08:17:45;;;;;;;5.35;2.13;;;;;;;7.27;53.63;102813.25;4912254;28;20051;-67
2022/03/06 08:20:11;;;;;;;6.07;2.47;;;;;;;7.46;52.73;102824.91;4927421;28;20035;-66
2022/03/06 08:22:37;;;;;;;6.72;2.80;;;;;;;7.34;51.04;102824.25;4906565;28;20031;-67
2022/03/06 08:25:03;;;;;;;4.30;2.30;;;;;;;6.56;51.65;102818.00;4922556;28;20038;-67
2022/03/06 08:27:30;;;;;;;5.10;2.00;;;;;;;6.51;51.79;102812.22;4923703;28;20078;-67
2022/03/06 08:29:55;;;;;;;7.05;2.20;;;;;;;6.14;53.41;102823.50;4907029;28;20054;-67
2022/03/06 08:32:21;;;;;;;7.40;2.70;;;;;;;6.81;51.90;102821.97;4938187;28;20502;-67
2022/03/06 08:34:48;;;;;;;5.85;2.60;;;;;;;6.54;52.31;102831.53;4905212;28;20046;-67
2022/03/06 08:37:13;;;;;;;4.45;1.88;;;;;;;6.18;52.73;102838.34;4919811;28;20043;-67
2022/03/06 08:39:38;;;;;;;5.78;2.00;;;;;;;5.89;54.02;102841.66;4905627;28;20058;-67
2022/03/06 08:42:04;;;;;;;5.10;2.50;;;;;;;5.66;54.06;102841.00;4921853;28;25288;-67
2022/03/06 08:44:30;;;;;;;5.03;1.98;;;;;;;5.73;54.48;102838.66;4936638;28;23910;-67
2022/03/06 08:46:55;;;;;;;6.55;2.13;;;;;;;6.55;52.08;102843.06;4908918;28;23802;-67
2022/03/06 08:49:21;;;;;;;8.90;2.90;;;;;;;6.98;52.64;102844.53;4922773;28;20671;-67
2022/03/06 08:51:46;;;;;;;5.57;2.63;;;;;;;7.14;49.69;102850.19;4906270;28;20439;-67
2022/03/06 08:54:12;;;;;;;9.00;2.40;;;;;;;6.57;52.02;102846.47;4924702;28;20581;-66
2022/03/06 08:56:37;;;;;;;4.97;2.00;;;;;;;6.79;51.32;102845.38;4907245;28;20243;-66
2022/03/06 08:59:03;;;;;;;8.93;2.42;;;;;;;6.99;51.75;102846.25;4921460;28;20053;-67
2022/03/06 09:01:28;;;;;;;4.78;2.42;;;;;;;7.08;49.78;102840.03;4905453;28;20058;-67
2022/03/06 09:03:53;;;;;;;4.85;1.90;;;;;;;6.81;49.42;102854.97;4937128;28;20039;-67
2022/03/06 09:06:19;;;;;;;6.75;2.15;;;;;;;7.29;49.44;102856.81;4925684;28;20689;-66
2022/03/06 09:08:45;;;;;;;6.57;2.40;;;;;;;7.21;48.77;102863.88;4907314;28;20059;-67
2022/03/06 09:11:10;;;;;;;6.72;2.22;;;;;;;7.08;48.20;102856.13;4920274;28;20175;-69
2022/03/06 09:13:36;;;;;;;8.80;2.40;;;;;;;6.21;49.77;102859.44;4904239;28;20059;-66
2022/03/06 09:16:03;;;;;;;6.15;2.35;;;;;;;6.73;49.57;102862.00;4921533;28;20854;-66
2022/03/06 09:18:28;;;;;;;4.38;2.33;;;;;;;7.01;49.34;102860.34;4910124;28;20059;-66
2022/03/06 09:20:54;;;;;;;7.45;2.40;;;;;;;7.15;48.32;102863.44;4920725;28;20040;-68
2022/03/06 09:23:19;;;;;;;7.75;2.55;;;;;;;7.11;48.69;102864.72;4918351;28;20528;-68
2022/03/06 09:25:44;;;;;;;7.05;2.20;;;;;;;7.11;49.43;102858.53;4911483;28;20387;-68
2022/03/06 09:28:10;;;;;;;4.72;1.92;;;;;;;7.01;48.37;102857.66;4921347;28;20059;-66
2022/03/06 09:30:35;;;;;;;7.80;2.80;;;;;;;7.30;48.31;102863.91;4907003;28;20054;-66
2022/03/06 09:33:01;;;;;;;5.18;2.20;;;;;;;7.67;47.42;102856.91;4921734;28;20130;-67
2022/03/06 09:35:27;;;;;;;5.63;2.10;;;;;;;7.23;46.91;102860.09;4903397;28;20054;-67
2022/03/06 09:37:53;;;;;;;6.65;2.45;;;;;;;7.16;48.17;102864.31;4936517;28;20035;-68
2022/03/06 09:40:18;;;;;;;6.38;2.13;;;;;;;7.33;48.20;102863.59;4907152;28;20059;-68
2022/03/06 09:42:44;;;;;;;5.20;2.20;;;;;;;7.02;48.25;102862.03;4919473;28;20106;-68
2022/03/06 09:45:11;;;;;;;5.22;2.60;;;;;;;7.13;48.25;102859.25;4921413;28;20043;-68
2022/03/06 09:47:38;;;;;;;5.40;2.00;;;;;;;6.86;48.84;102868.78;4908580;28;20179;-68
2022/03/06 09:50:05;;;;;;;5.22;2.25;;;;;;;6.70;50.19;102865.78;4920047;28;20043;-68
2022/03/06 09:52:31;;;;;;;6.75;2.33;;;;;;;6.51;50.41;102869.28;4916746;28;21065;-68
2022/03/06 09:54:56;;;;;;;5.80;2.35;;;;;;;6.84;49.10;102869.91;4924782;28;20054;-68
2022/03/06 09:57:22;;;;;;;9.02;2.63;;;;;;;6.40;50.08;102867.56;4907039;28;20106;-68
2022/03/06 09:59:48;;;;;;;7.30;2.38;;;;;;;6.91;48.60;102869.25;4917837;28;20125;-71
2022/03/06 10:02:14;;;;;;;5.25;2.50;;;;;;;6.87;49.40;102870.47;4904475;28;20178;-67
2022/03/06 10:04:40;;;;;;;6.30;2.50;;;;;;;7.27;49.09;102864.19;4921234;28;20175;-67
2022/03/06 10:07:17;;;;;;;6.88;2.47;;;;;;;7.41;48.69;102879.00;4918056;28;20034;-67
2022/03/06 10:09:50;;;;;;;6.65;2.45;;;;;;;7.83;47.10;102867.91;4915836;28;22737;-67
2022/03/06 10:12:24;;;;;;;6.17;2.57;;;;;;;8.05;46.47;102861.34;4904545;28;20050;-67
2022/03/06 10:14:52;;;;;;;3.97;2.28;;;;;;;7.89;46.13;102857.41;4905414;28;20066;-68
2022/03/06 10:17:22;;;;;;;4.78;1.85;;;;;;;7.73;47.26;102865.25;4919662;28;20034;-67
2022/03/06 10:19:53;;;;;;;4.60;2.50;;;;;;;7.96;46.04;102862.19;4906011;28;20447;-67
2022/03/06 10:22:20;;;;;;;5.30;1.80;;;;;;;7.79;47.32;102855.75;4919684;28;20035;-68
2022/03/06 10:24:47;;;;;;;4.75;2.50;;;;;;;7.76;46.74;102866.78;4903552;28;20114;-67
2022/03/06 10:27:13;;;;;;;4.80;2.20;;;;;;;7.66;47.91;102866.81;4919391;28;20035;-67
2022/03/06 10:29:39;;;;;;;8.50;2.58;;;;;;;7.69;47.97;102861.16;4887468;28;20062;-68
2022/03/06 10:32:07;;;;;;;4.22;2.13;;;;;;;7.48;48.65;102868.53;4921300;28;20094;-67
2022/03/06 10:34:40;;;;;;;7.35;2.50;;;;;;;7.39;48.82;102867.53;4919207;28;20041;-68
2022/03/06 10:37:06;;;;;;;;;;;;;;;8.04;48.25;102870.38;4908485;28;20453;-68
2022/03/06 10:39:43;;;;;;;7.30;2.25;;;;;;;8.73;46.52;102867.22;4923442;28;19932;-69
2022/03/06 10:42:10;;;;;;;5.32;2.20;;;;;;;8.98;45.36;102870.19;4904858;28;20054;-69
2022/03/06 10:44:46;;;;;;;7.53;2.38;;;;;;;8.91;46.23;102869.94;4923571;28;20043;-68
2022/03/06 10:47:12;;;;;;;5.85;2.00;;;;;;;8.33;46.84;102876.47;4885841;28;21295;-70
2022/03/06 10:49:37;;;;;;;7.80;2.78;;;;;;;7.77;48.81;102877.38;4922154;28;20526;-68
2022/03/06 10:52:19;;;;;;;10.70;3.50;;;;;;;8.32;48.15;102860.53;4900127;28;20158;-68
2022/03/06 10:54:52;;;;;;;6.78;2.95;;;;;;;8.71;47.79;102871.09;4917902;28;20041;-68
2022/03/06 10:57:19;;;;;;;6.00;2.90;;;;;;;8.86;47.28;102879.47;4904985;28;20066;-68
2022/03/06 10:59:45;;;;;;;7.07;2.80;;;;;;;9.44;46.32;102870.94;4921480;28;20031;-68
2022/03/06 11:02:12;;;;;;;7.13;2.28;;;;;;;9.14;46.46;102859.59;4901122;28;20030;-68
2022/03/06 11:04:38;;;;;;;7.30;3.17;;;;;;;9.49;45.24;102868.63;4892766;28;20494;-68
2022/03/06 11:07:04;;;;;;;5.05;2.60;;;;;;;10.50;43.29;102858.97;4904442;28;20078;-70
2022/03/06 11:09:29;;;;;;;5.57;2.90;;;;;;;10.10;44.22;102867.66;4902513;28;20723;-70
2022/03/06 11:11:55;;;;;;;6.75;2.97;;;;;;;10.19;43.65;102866.72;4937698;28;20093;-70